Terminal Aerodrome Forecast
Issued by NWS Shreveport, LA

Home | Current Version | Previous Version | Text Only | Print | Product List | Glossary On
Versions: 1 2 3 4 5 6 7 8 9 10 11 12 13 14 15 16 17
000
FTUS44 KSHV 120500
TAFMLU
TAF
KMLU 120535Z 1206/1306 00000KT P6SM SKC
      TEMPO 1210/1213 3SM BR
     FM121300 VRB03KT P6SM SKC
     FM121700 VRB04KT P6SM SCT040
     FM130000 VRB03KT P6SM FEW250=

USA.gov is the U.S. government's official web portal to all federal, state and local government web resources and services.